Time;durP1;ratioP1;P1;durP2;ratioP2;P2;SDS_P1;SDS_P2;PMS_P1;PMS_P2;Temp;Humidity;BMP_temperature;BMP_pressure;BME280_temperature;BME280_humidity;BME280_pressure;Samples;Min_cycle;Max_cycle;Signal;HPM_P1;HPM_P2
2023/02/16 00:08:19;;;;;;;58.47;25.35;;;;;;;-0.09;100.00;101490.97;20965212;28;20053;-70
2023/02/16 00:18:20;;;;;;;59.35;26.25;;;;;;;-0.01;100.00;101499.91;20954752;28;20053;-71
2023/02/16 00:28:21;;;;;;;59.22;27.13;;;;;;;-0.05;100.00;101482.53;20954683;28;20067;-72
2023/02/16 00:38:23;;;;;;;55.97;25.52;;;;;;;-0.02;100.00;101478.44;20954700;28;20048;-72
2023/02/16 00:48:24;;;;;;;53.22;25.88;;;;;;;0.02;100.00;101479.44;20944612;28;20056;-71
2023/02/16 00:58:25;;;;;;;54.67;26.52;;;;;;;-0.04;100.00;101477.50;20948752;28;20057;-71
2023/02/16 01:18:47;;;;;;;58.70;27.52;;;;;;;-0.02;100.00;101482.69;20950369;28;20060;-70
2023/02/16 01:28:48;;;;;;;64.90;28.23;;;;;;;-0.08;100.00;101492.72;20952249;28;20064;-70
2023/02/16 01:38:49;;;;;;;61.50;28.27;;;;;;;-0.10;100.00;101474.63;20948317;28;20057;-70
2023/02/16 01:48:51;;;;;;;62.70;28.23;;;;;;;0.01;100.00;101479.41;20949314;28;20463;-71
2023/02/16 01:58:52;;;;;;;75.90;29.38;;;;;;;0.11;100.00;101472.13;20948527;28;20512;-71
2023/02/16 02:08:53;;;;;;;67.65;28.70;;;;;;;0.15;100.00;101466.31;20946140;28;20057;-72
2023/02/16 02:18:54;;;;;;;73.72;31.52;;;;;;;0.16;100.00;101455.19;20948310;28;20060;-71
2023/02/16 02:28:56;;;;;;;65.18;30.35;;;;;;;0.18;100.00;101445.81;20944819;28;20463;-71
2023/02/16 02:38:57;;;;;;;71.82;30.02;;;;;;;0.22;100.00;101432.25;20944410;28;20084;-71
2023/02/16 02:48:58;;;;;;;72.90;32.13;;;;;;;0.27;100.00;101436.72;21039447;23;20049;-69
2023/02/16 03:09:20;;;;;;;64.80;29.80;;;;;;;0.31;100.00;101436.06;20943337;28;20056;-68
2023/02/16 03:29:41;;;;;;;69.35;30.95;;;;;;;0.43;100.00;101431.41;20943608;28;20053;-69
2023/02/16 03:50:02;;;;;;;67.93;30.70;;;;;;;0.47;100.00;101430.72;20940143;28;20063;-69
2023/02/16 04:00:03;;;;;;;62.28;30.45;;;;;;;0.45;100.00;101425.50;20942691;28;20049;-68
2023/02/16 04:10:05;;;;;;;75.82;33.67;;;;;;;0.46;100.00;101449.56;20942519;28;20084;-68
2023/02/16 04:20:06;;;;;;;66.10;30.27;;;;;;;0.37;100.00;101444.03;20939482;28;20577;-68
2023/02/16 04:30:07;;;;;;;63.10;30.70;;;;;;;0.43;100.00;101442.59;20949418;28;20052;-71
2023/02/16 04:40:12;;;;;;;71.15;32.78;;;;;;;0.48;100.00;101432.50;20961297;28;20052;-72
2023/02/16 04:50:13;;;;;;;66.38;30.77;;;;;;;0.48;100.00;101445.38;20953920;28;20056;-70
2023/02/16 05:00:14;;;;;;;65.47;30.38;;;;;;;0.42;100.00;101440.81;20953736;28;20061;-70
2023/02/16 05:10:16;;;;;;;66.60;31.70;;;;;;;0.44;100.00;101443.47;20955174;28;20068;-71
2023/02/16 05:20:17;;;;;;;68.20;31.00;;;;;;;0.45;100.00;101445.25;20951601;28;20049;-72
2023/02/16 05:30:18;;;;;;;69.68;30.75;;;;;;;0.38;100.00;101445.78;20952621;28;20083;-72
2023/02/16 05:40:20;;;;;;;66.20;29.98;;;;;;;0.28;100.00;101436.78;20949681;28;20059;-72
2023/02/16 05:50:21;;;;;;;66.35;31.67;;;;;;;0.17;100.00;101445.75;20949485;28;20103;-69
2023/02/16 06:00:22;;;;;;;67.43;32.58;;;;;;;0.10;100.00;101438.59;20949813;28;20048;-68
2023/02/16 06:10:24;;;;;;;66.05;30.48;;;;;;;-0.13;100.00;101442.75;20947070;28;20053;-70
2023/02/16 06:20:25;;;;;;;61.60;31.08;;;;;;;-0.29;100.00;101449.78;20948710;28;20053;-70
2023/02/16 06:30:26;;;;;;;62.83;30.58;;;;;;;-0.38;100.00;101467.38;20943409;28;20052;-69
2023/02/16 06:40:28;;;;;;;68.10;31.73;;;;;;;-0.45;100.00;101478.19;20946861;28;20136;-69
2023/02/16 06:50:29;;;;;;;65.85;30.95;;;;;;;-0.49;100.00;101483.13;20943475;28;20053;-70
2023/02/16 07:00:30;;;;;;;61.22;30.20;;;;;;;-0.49;100.00;101489.13;20944012;28;20122;-69
2023/02/16 07:10:31;;;;;;;65.93;31.10;;;;;;;-0.42;100.00;101493.78;20942891;28;20493;-70
2023/02/16 07:20:49;;;;;;;65.35;31.25;;;;;;;-0.40;100.00;101494.72;20941334;28;20045;-69
2023/02/16 07:30:50;;;;;;;72.18;33.25;;;;;;;-0.27;100.00;101507.34;20942218;28;20421;-70
2023/02/16 07:40:52;;;;;;;78.47;36.35;;;;;;;-0.09;100.00;101494.44;20929694;28;20565;-70
2023/02/16 07:50:53;;;;;;;76.30;34.83;;;;;;;0.07;100.00;101495.09;20916363;28;20053;-69
2023/02/16 08:00:54;;;;;;;71.03;34.53;;;;;;;0.26;100.00;101495.09;20915865;28;20045;-70
2023/02/16 08:10:55;;;;;;;79.85;37.38;;;;;;;0.47;100.00;101511.47;20927034;28;20064;-70
2023/02/16 08:20:57;;;;;;;74.70;36.22;;;;;;;0.62;100.00;101518.97;20948811;28;20529;-69
2023/02/16 08:31:05;;;;;;;79.88;38.20;;;;;;;0.90;100.00;101507.22;20951367;28;20049;-71
2023/02/16 08:41:06;;;;;;;78.53;36.25;;;;;;;1.10;100.00;101516.66;20938037;28;20056;-70
2023/02/16 08:51:08;;;;;;;83.50;39.08;;;;;;;1.38;100.00;101510.91;20953429;28;20057;-69
2023/02/16 09:01:10;;;;;;;76.63;38.80;;;;;;;1.74;100.00;101506.28;20954029;28;20488;-70
2023/02/16 09:11:11;;;;;;;81.15;38.60;;;;;;;2.17;100.00;101507.88;20952345;28;20053;-69
2023/02/16 09:21:14;;;;;;;72.43;36.75;;;;;;;2.69;100.00;101522.63;20950390;28;20448;-70
2023/02/16 09:31:15;;;;;;;65.57;33.53;;;;;;;3.14;100.00;101501.69;20950952;28;20574;-69
2023/02/16 09:41:17;;;;;;;55.03;30.55;;;;;;;3.63;100.00;101491.97;20951081;28;20060;-70
2023/02/16 09:51:18;;;;;;;51.78;27.13;;;;;;;4.20;100.00;101485.00;20958401;28;20064;-70
2023/02/16 10:01:23;;;;;;;46.78;25.60;;;;;;;4.82;100.00;101485.75;20975075;28;20075;-72
2023/02/16 10:11:37;;;;;;;39.92;22.65;;;;;;;5.28;100.00;101480.81;20976768;28;20041;-73
2023/02/16 10:21:39;;;;;;;43.63;22.83;;;;;;;5.84;100.00;101458.66;20976488;28;20106;-77
2023/02/16 10:31:43;;;;;;;35.97;20.48;;;;;;;6.45;100.00;101450.31;20974748;28;20048;-75
2023/02/16 10:41:45;;;;;;;31.42;17.58;;;;;;;7.10;100.00;101442.75;20974863;28;20106;-74
2023/02/16 10:51:47;;;;;;;27.70;15.15;;;;;;;7.83;100.00;101435.91;20974918;28;20094;-71
2023/02/16 11:01:49;;;;;;;24.95;14.02;;;;;;;8.41;100.00;101425.28;20974296;28;20098;-72
2023/02/16 11:11:50;;;;;;;27.08;14.05;;;;;;;8.57;100.00;101421.06;20973044;28;20048;-71
2023/02/16 11:21:53;;;;;;;25.23;13.93;;;;;;;8.83;100.00;101409.09;20972372;28;20512;-73
2023/02/16 11:31:55;;;;;;;25.00;13.10;;;;;;;9.38;100.00;101393.75;20971572;28;20049;-73
2023/02/16 11:41:56;;;;;;;19.83;11.68;;;;;;;9.88;100.00;101374.81;20969997;28;20052;-73
2023/02/16 11:51:58;;;;;;;22.40;11.23;;;;;;;10.23;100.00;101342.59;20972294;28;20728;-73
2023/02/16 12:01:59;;;;;;;24.63;10.45;;;;;;;10.49;100.00;101340.00;20970212;28;20047;-70
2023/02/16 12:12:01;;;;;;;17.20;10.38;;;;;;;10.75;95.52;101329.50;20969859;28;20708;-72
2023/02/16 12:22:03;;;;;;;18.73;10.75;;;;;;;10.69;94.18;101332.16;20970162;28;20706;-72
2023/02/16 12:32:04;;;;;;;17.45;10.43;;;;;;;10.71;97.90;101318.16;20971313;28;20106;-73
2023/02/16 12:42:05;;;;;;;20.20;11.20;;;;;;;10.98;95.55;101309.38;20937276;28;20111;-73
2023/02/16 12:52:07;;;;;;;19.95;11.68;;;;;;;11.23;97.97;101296.19;20961916;28;20066;-73
2023/02/16 13:02:08;;;;;;;17.77;10.25;;;;;;;11.35;93.42;101279.50;20980821;28;20059;-72
2023/02/16 13:12:10;;;;;;;15.10;9.05;;;;;;;11.32;94.15;101269.06;20981713;28;20143;-72
2023/02/16 13:22:11;;;;;;;19.77;10.00;;;;;;;11.72;88.37;101264.44;20982867;28;20114;-73
2023/02/16 13:32:12;;;;;;;14.38;8.75;;;;;;;11.92;80.88;101257.31;20977933;28;20571;-70
2023/02/16 13:42:14;;;;;;;15.55;8.27;;;;;;;11.98;79.26;101245.94;20979170;28;20052;-71
2023/02/16 13:52:15;;;;;;;13.80;7.47;;;;;;;11.91;79.79;101234.59;20979962;28;20060;-73
2023/02/16 14:02:17;;;;;;;15.68;8.32;;;;;;;11.96;77.74;101224.94;20978172;28;20053;-72
2023/02/16 14:12:18;;;;;;;13.77;8.35;;;;;;;12.04;77.08;101220.50;20977928;28;20413;-71
2023/02/16 14:22:20;;;;;;;16.45;8.75;;;;;;;11.91;79.31;101213.59;20976591;28;21152;-71
2023/02/16 14:32:21;;;;;;;18.70;9.40;;;;;;;11.90;81.46;101204.00;20975623;28;20561;-71
2023/02/16 14:42:22;;;;;;;20.33;10.55;;;;;;;11.78;82.98;101202.28;20973731;28;20052;-71
2023/02/16 14:52:23;;;;;;;18.50;9.80;;;;;;;11.83;82.13;101199.66;20925646;22;20107;-76
2023/02/16 15:02:25;;;;;;;17.98;9.80;;;;;;;11.53;84.88;101190.25;20899250;28;20053;-71
2023/02/16 15:12:26;;;;;;;17.98;9.48;;;;;;;11.51;84.39;101195.53;20901705;28;20056;-71
2023/02/16 15:22:28;;;;;;;15.80;8.07;;;;;;;11.47;82.87;101195.53;20889208;28;20420;-71
2023/02/16 15:32:30;;;;;;;14.77;7.93;;;;;;;11.41;81.83;101191.22;20889069;28;20048;-71
2023/02/16 15:42:32;;;;;;;16.00;7.45;;;;;;;11.29;81.45;101191.28;20889149;28;20064;-72
2023/02/16 15:52:34;;;;;;;15.95;8.15;;;;;;;11.18;82.44;101180.88;20887284;28;20152;-73
2023/02/16 16:02:35;;;;;;;15.05;7.80;;;;;;;11.14;83.30;101191.38;20888287;28;20049;-73
2023/02/16 16:12:37;;;;;;;17.25;8.95;;;;;;;11.22;83.02;101192.22;20888340;28;20498;-71
2023/02/16 16:22:38;;;;;;;16.98;9.00;;;;;;;11.08;84.96;101192.28;20887065;28;20072;-71
2023/02/16 16:32:40;;;;;;;16.55;8.88;;;;;;;10.68;89.04;101186.31;20900755;28;20061;-74
2023/02/16 16:42:41;;;;;;;19.67;10.75;;;;;;;10.68;91.43;101186.31;20902058;28;20053;-73
2023/02/16 16:52:43;;;;;;;18.05;10.23;;;;;;;10.39;94.35;101189.91;20897251;28;20053;-73
2023/02/16 17:02:44;;;;;;;18.65;11.05;;;;;;;10.21;97.49;101196.03;20894791;28;20052;-75
2023/02/16 17:12:45;;;;;;;21.98;11.75;;;;;;;10.09;99.48;101197.78;20889817;28;20052;-71
2023/02/16 17:22:46;;;;;;;19.50;10.45;;;;;;;10.11;99.35;101204.78;20895830;28;20053;-71
2023/02/16 17:32:48;;;;;;;25.10;12.77;;;;;;;9.98;100.00;101201.28;20892313;28;20107;-74
2023/02/16 17:42:49;;;;;;;18.80;11.38;;;;;;;9.95;100.00;101203.88;20891463;28;20051;-73
2023/02/16 17:52:55;;;;;;;26.33;14.55;;;;;;;9.88;100.00;101202.16;20894761;28;20382;-73
2023/02/16 18:02:57;;;;;;;26.52;16.55;;;;;;;9.85;100.00;101210.00;20894584;28;20060;-73
2023/02/16 18:12:58;;;;;;;24.08;14.13;;;;;;;9.84;100.00;101210.00;20892477;28;20056;-74
2023/02/16 18:22:59;;;;;;;31.98;18.05;;;;;;;9.73;100.00;101207.38;20892173;28;20045;-73
2023/02/16 18:33:01;;;;;;;32.60;19.30;;;;;;;9.73;100.00;101213.50;20889377;28;20088;-73
2023/02/16 18:43:02;;;;;;;30.98;19.05;;;;;;;9.67;100.00;101208.22;20886546;28;20106;-73
2023/02/16 18:53:03;;;;;;;27.92;14.85;;;;;;;9.73;100.00;101207.38;20886903;28;20052;-72
2023/02/16 19:03:05;;;;;;;26.20;16.23;;;;;;;9.70;100.00;101189.06;20882956;28;20095;-72
2023/02/16 19:13:06;;;;;;;29.88;17.17;;;;;;;9.67;100.00;101196.91;20877457;28;20053;-72
2023/02/16 19:23:07;;;;;;;23.42;13.73;;;;;;;9.73;100.00;101192.56;20892760;28;20053;-73
2023/02/16 19:33:08;;;;;;;26.25;12.40;;;;;;;9.89;97.82;101197.78;20887951;28;20056;-71
2023/02/16 19:43:10;;;;;;;19.67;11.00;;;;;;;9.92;96.64;101201.28;20885693;28;20733;-72
2023/02/16 19:53:11;;;;;;;21.52;10.32;;;;;;;9.96;95.49;101210.84;20886957;28;20056;-72
2023/02/16 20:03:13;;;;;;;16.73;10.07;;;;;;;9.93;94.76;101215.25;20888079;28;20104;-71
2023/02/16 20:13:14;;;;;;;18.75;9.85;;;;;;;9.96;93.02;101226.56;20807926;28;20494;-72
2023/02/16 20:23:15;;;;;;;20.27;11.88;;;;;;;9.87;94.01;101226.56;20828580;28;20061;-71
2023/02/16 20:33:18;;;;;;;20.25;10.88;;;;;;;9.65;96.02;101224.81;20820570;28;20064;-73
2023/02/16 20:43:19;;;;;;;24.58;12.10;;;;;;;9.72;93.17;101222.19;20817602;28;20100;-71
2023/02/16 20:53:21;;;;;;;21.70;11.18;;;;;;;9.77;92.63;101204.78;20913187;23;20652;-69
2023/02/16 21:03:22;;;;;;;23.95;11.20;;;;;;;9.93;90.35;101205.63;20813337;28;20461;-67
2023/02/16 21:13:23;;;;;;;21.35;10.23;;;;;;;9.77;93.14;101193.41;20808936;28;20053;-68
2023/02/16 21:23:24;;;;;;;19.38;10.02;;;;;;;9.79;91.83;101190.81;20813348;28;20103;-69
2023/02/16 21:33:26;;;;;;;18.50;9.20;;;;;;;9.67;93.90;101191.66;20813726;28;20053;-69
2023/02/16 21:43:27;;;;;;;15.40;8.93;;;;;;;9.63;93.47;101190.81;20813920;28;20054;-69
2023/02/16 21:53:28;;;;;;;18.30;9.35;;;;;;;9.68;92.48;101183.84;20811829;28;20463;-69
2023/02/16 22:03:29;;;;;;;15.05;8.38;;;;;;;9.74;92.10;101172.50;20809938;28;20069;-69
2023/02/16 22:13:31;;;;;;;15.00;7.50;;;;;;;9.70;91.99;101162.91;20808090;28;20068;-68
2023/02/16 22:23:32;;;;;;;15.90;8.02;;;;;;;9.76;91.79;101176.84;20810055;28;20058;-68
2023/02/16 22:33:33;;;;;;;15.05;7.72;;;;;;;9.90;89.83;101174.25;20808635;28;20080;-69
2023/02/16 22:43:35;;;;;;;16.30;7.80;;;;;;;9.94;89.46;101159.44;20808127;28;20061;-71
2023/02/16 22:53:36;;;;;;;20.08;7.72;;;;;;;9.98;89.22;101158.56;20805827;28;20545;-69
2023/02/16 23:03:37;;;;;;;15.52;7.40;;;;;;;9.92;88.24;101159.44;20804247;28;20053;-70
2023/02/16 23:13:38;;;;;;;15.60;7.70;;;;;;;9.98;87.69;101156.81;20808690;28;20057;-70
2023/02/16 23:23:40;;;;;;;17.13;7.63;;;;;;;9.97;86.95;101155.06;20807854;28;20052;-69
2023/02/16 23:33:41;;;;;;;13.52;6.97;;;;;;;10.03;86.38;101149.81;20806731;28;20516;-70
2023/02/16 23:43:42;;;;;;;14.18;7.10;;;;;;;10.20;85.21;101167.22;20808201;28;20111;-70
2023/02/16 23:53:44;;;;;;;15.05;7.70;;;;;;;10.10;86.25;101158.50;20807663;28;20056;-68
